createdAt,value
2023-01-11T00:01:06.735Z,1.33
2023-01-11T00:03:35.918Z,2.37
2023-01-11T00:06:05.060Z,1.43
2023-01-11T00:08:33.349Z,1.53
2023-01-11T00:11:03.547Z,1.47
2023-01-11T00:13:32.279Z,1.70
2023-01-11T00:16:07.670Z,1.50
2023-01-11T00:18:36.977Z,1.73
2023-01-11T00:21:06.403Z,1.50
2023-01-11T00:23:34.951Z,1.53
2023-01-11T00:26:05.592Z,1.60
2023-01-11T00:28:34.343Z,1.30
2023-01-11T00:31:02.685Z,1.43
2023-01-11T00:33:31.231Z,1.37
2023-01-11T00:35:59.500Z,0.93
2023-01-11T00:38:41.991Z,1.30
2023-01-11T00:41:26.323Z,1.37
2023-01-11T00:44:13.048Z,1.77
2023-01-11T00:46:58.979Z,1.47
2023-01-11T00:49:27.903Z,1.40
2023-01-11T00:51:56.055Z,1.73
2023-01-11T00:54:24.255Z,1.70
2023-01-11T00:56:54.362Z,0.63
2023-01-11T00:59:22.510Z,1.27
2023-01-11T01:01:50.728Z,1.37
2023-01-11T01:04:19.382Z,1.10
2023-01-11T01:06:47.760Z,0.80
2023-01-11T01:09:15.972Z,1.00
2023-01-11T01:11:44.843Z,1.17
2023-01-11T01:14:26.784Z,0.97
2023-01-11T01:16:55.950Z,0.93
2023-01-11T01:19:24.546Z,1.00
2023-01-11T01:21:52.756Z,0.70
2023-01-11T01:24:21.172Z,0.90
2023-01-11T01:26:49.426Z,0.70
2023-01-11T01:29:19.221Z,0.60
2023-01-11T01:31:47.871Z,1.33
2023-01-11T01:34:16.099Z,1.30
2023-01-11T01:36:44.440Z,0.90
2023-01-11T01:39:13.498Z,1.07
2023-01-11T01:41:41.921Z,1.30
2023-01-11T01:44:42.935Z,1.20
2023-01-11T01:47:13.244Z,0.93
2023-01-11T01:49:44.961Z,1.07
2023-01-11T01:52:13.889Z,1.67
2023-01-11T01:54:47.249Z,1.70
2023-01-11T01:57:19.962Z,1.50
2023-01-11T01:59:52.495Z,1.20
2023-01-11T02:02:25.974Z,1.90
2023-01-11T02:04:57.071Z,2.00
2023-01-11T02:07:28.840Z,1.57
2023-01-11T02:10:03.920Z,2.57
2023-01-11T02:12:36.283Z,1.83
2023-01-11T02:15:06.444Z,2.20
2023-01-11T02:17:36.021Z,2.53
2023-01-11T02:20:15.598Z,2.00
2023-01-11T02:23:11.620Z,2.80
2023-01-11T02:26:14.174Z,2.63
2023-01-11T02:28:52.381Z,1.97
2023-01-11T02:31:30.642Z,2.30
2023-01-11T02:34:13.399Z,2.13
2023-01-11T02:36:53.216Z,2.70
2023-01-11T02:39:30.956Z,1.90
2023-01-11T02:42:24.933Z,2.63
2023-01-11T02:45:05.254Z,2.10
2023-01-11T02:47:41.082Z,1.87
2023-01-11T02:50:17.154Z,2.93
2023-01-11T02:52:55.231Z,2.07
2023-01-11T02:55:27.436Z,2.70
2023-01-11T02:57:59.166Z,2.53
2023-01-11T03:00:29.693Z,2.13
2023-01-11T03:03:09.319Z,3.13
2023-01-11T03:05:43.051Z,2.73
2023-01-11T03:08:27.461Z,4.10
2023-01-11T03:11:04.626Z,3.37
2023-01-11T03:13:55.379Z,3.00
2023-01-11T03:16:27.402Z,2.77
2023-01-11T03:19:07.768Z,2.03
2023-01-11T03:21:48.169Z,2.63
2023-01-11T03:24:25.476Z,3.57
2023-01-11T03:27:04.394Z,2.87
2023-01-11T03:29:37.845Z,1.87
2023-01-11T03:32:17.085Z,3.63
2023-01-11T03:34:50.600Z,1.87
2023-01-11T03:37:26.781Z,2.53
2023-01-11T03:40:04.307Z,2.13
2023-01-11T03:42:56.182Z,1.53
2023-01-11T03:45:26.135Z,2.40
2023-01-11T03:47:58.073Z,2.77
2023-01-11T03:50:28.359Z,2.97
2023-01-11T03:52:58.638Z,3.27
2023-01-11T03:55:29.869Z,2.93
2023-01-11T03:58:00.380Z,1.30
2023-01-11T04:00:30.923Z,1.93
2023-01-11T04:03:01.865Z,2.23
2023-01-11T04:05:30.576Z,2.47
2023-01-11T04:07:59.361Z,2.40
2023-01-11T04:10:27.931Z,2.33
2023-01-11T04:12:56.053Z,2.47
2023-01-11T04:15:24.872Z,3.00
2023-01-11T04:17:53.457Z,2.23
2023-01-11T04:20:23.066Z,1.90
2023-01-11T04:22:51.581Z,2.50
2023-01-11T04:25:20.151Z,2.60
2023-01-11T04:27:48.314Z,2.80
2023-01-11T04:30:17.409Z,2.17
2023-01-11T04:32:45.691Z,3.07
2023-01-11T04:35:13.871Z,3.10
2023-01-11T04:37:44.161Z,3.53
2023-01-11T04:40:13.443Z,2.93
2023-01-11T04:42:40.608Z,2.83
2023-01-11T04:45:10.072Z,3.20
2023-01-11T04:47:38.275Z,2.47
2023-01-11T04:50:07.297Z,3.10
2023-01-11T04:52:35.909Z,2.73
2023-01-11T04:55:06.214Z,3.13
2023-01-11T04:57:34.492Z,2.17
2023-01-11T05:00:03.331Z,3.73
2023-01-11T05:02:32.026Z,3.37
2023-01-11T05:05:00.227Z,2.50
2023-01-11T05:07:28.628Z,2.23
2023-01-11T05:09:56.894Z,2.77
2023-01-11T05:12:26.439Z,3.23
2023-01-11T05:14:54.999Z,3.13
2023-01-11T05:17:23.247Z,3.93
2023-01-11T05:19:51.396Z,3.17
2023-01-11T05:22:19.732Z,3.03
2023-01-11T05:24:48.348Z,3.00
2023-01-11T05:27:16.477Z,3.23
2023-01-11T05:29:46.172Z,3.70
2023-01-11T05:32:14.637Z,2.57
2023-01-11T05:34:42.784Z,3.30
2023-01-11T05:37:11.071Z,2.50
2023-01-11T05:39:39.211Z,2.93
2023-01-11T05:42:07.467Z,3.47
2023-01-11T05:44:53.531Z,2.80
2023-01-11T05:47:23.341Z,2.23
2023-01-11T05:49:51.647Z,2.23
2023-01-11T05:52:19.894Z,2.10
2023-01-11T05:54:48.067Z,2.40
2023-01-11T05:57:16.239Z,2.50
2023-01-11T05:59:44.509Z,3.20
2023-01-11T06:02:12.892Z,2.23
2023-01-11T06:04:43.357Z,2.13
2023-01-11T06:07:11.907Z,2.47
2023-01-11T06:09:40.035Z,1.97
2023-01-11T06:12:08.500Z,2.03
2023-01-11T06:14:38.220Z,2.93
2023-01-11T06:17:06.709Z,2.87
2023-01-11T06:19:35.295Z,2.50
2023-01-11T06:22:05.242Z,3.10
2023-01-11T06:24:33.471Z,2.90
2023-01-11T06:27:01.868Z,3.30
2023-01-11T06:29:29.998Z,3.37
2023-01-11T06:31:58.486Z,2.90
2023-01-11T06:34:27.233Z,3.70
2023-01-11T06:36:55.993Z,4.30
2023-01-11T06:39:25.571Z,4.00
2023-01-11T06:41:53.763Z,2.87
2023-01-11T06:44:22.138Z,3.17
2023-01-11T06:46:50.400Z,3.50
2023-01-11T06:49:18.515Z,3.43
2023-01-11T06:51:47.465Z,4.20
2023-01-11T06:54:15.553Z,3.63
2023-01-11T06:56:45.033Z,3.07
2023-01-11T06:59:13.711Z,3.10
2023-01-11T07:01:41.979Z,4.13
2023-01-11T07:04:10.278Z,3.03
2023-01-11T07:06:38.897Z,2.73
2023-01-11T07:09:07.731Z,3.97
2023-01-11T07:11:39.275Z,3.43
2023-01-11T07:14:09.773Z,3.30
2023-01-11T07:16:37.921Z,3.40
2023-01-11T07:19:06.518Z,4.40
2023-01-11T07:21:35.042Z,3.57
2023-01-11T07:24:03.247Z,3.50
2023-01-11T07:26:33.403Z,3.03
2023-01-11T07:29:02.039Z,2.77
2023-01-11T07:31:31.642Z,3.60
2023-01-11T07:33:59.832Z,2.80
2023-01-11T07:36:29.956Z,3.30
2023-01-11T07:38:58.190Z,4.43
2023-01-11T07:41:44.086Z,3.77
2023-01-11T07:44:12.279Z,3.00
2023-01-11T07:46:41.970Z,2.93
2023-01-11T07:49:10.607Z,3.20
2023-01-11T07:51:39.182Z,2.53
2023-01-11T07:54:07.355Z,2.50
2023-01-11T07:56:35.534Z,2.20
2023-01-11T07:59:04.759Z,2.53
2023-01-11T08:01:32.965Z,2.00
2023-01-11T08:04:02.908Z,2.13
2023-01-11T08:06:31.509Z,2.27
2023-01-11T08:08:59.723Z,2.43
2023-01-11T08:11:45.205Z,2.30
2023-01-11T08:14:30.989Z,2.27
2023-01-11T08:16:59.587Z,2.37
2023-01-11T08:19:29.340Z,2.40
2023-01-11T08:21:57.619Z,2.23
2023-01-11T08:24:26.580Z,2.57
2023-01-11T08:26:55.181Z,2.13
2023-01-11T08:29:23.790Z,2.20
2023-01-11T08:31:52.310Z,1.63
2023-01-11T08:34:20.622Z,1.67
2023-01-11T08:36:50.207Z,1.80
2023-01-11T08:39:18.577Z,2.07
2023-01-11T08:41:46.770Z,1.63
2023-01-11T08:44:22.288Z,1.83
2023-01-11T08:47:01.521Z,2.17
2023-01-11T08:49:30.631Z,1.73
2023-01-11T08:52:00.320Z,1.70
2023-01-11T08:54:28.801Z,1.50
2023-01-11T08:56:57.241Z,1.97
2023-01-11T08:59:25.444Z,1.60
2023-01-11T09:01:54.037Z,1.60
2023-01-11T09:04:25.876Z,2.20
2023-01-11T09:06:55.084Z,1.57
2023-01-11T09:09:24.682Z,2.00
2023-01-11T09:11:57.389Z,1.93
2023-01-11T09:14:27.214Z,2.67
2023-01-11T09:16:56.970Z,2.20
2023-01-11T09:19:26.100Z,2.00
2023-01-11T09:21:56.909Z,2.13
2023-01-11T09:24:26.953Z,2.77
2023-01-11T09:26:55.709Z,1.83
2023-01-11T09:29:23.855Z,2.07
2023-01-11T09:31:52.199Z,2.27
2023-01-11T09:34:21.224Z,2.70
2023-01-11T09:36:49.766Z,1.70
2023-01-11T09:39:22.471Z,2.40
2023-01-11T09:42:29.423Z,3.10
2023-01-11T09:45:02.832Z,2.43
2023-01-11T09:47:36.753Z,2.83
2023-01-11T09:50:12.509Z,2.07
2023-01-11T09:52:43.965Z,2.90
2023-01-11T09:55:20.021Z,2.00
2023-01-11T09:58:03.096Z,2.23
2023-01-11T10:00:43.453Z,2.53
2023-01-11T10:03:41.393Z,2.27
2023-01-11T10:06:17.918Z,2.40
2023-01-11T10:18:30.326Z,3.07
2023-01-11T10:18:43.077Z,3.93
2023-01-11T10:21:11.098Z,3.37
2023-01-11T10:23:49.805Z,2.63
2023-01-11T10:26:27.380Z,2.80
2023-01-11T10:29:17.792Z,2.10
2023-01-11T10:32:09.654Z,2.97
2023-01-11T10:35:00.211Z,2.00
2023-01-11T10:37:53.205Z,3.13
2023-01-11T10:40:39.956Z,3.10
2023-01-11T10:43:17.024Z,2.87
2023-01-11T10:45:51.368Z,4.43
2023-01-11T10:48:27.456Z,2.67
2023-01-11T10:51:05.098Z,2.63
2023-01-11T10:53:39.583Z,3.30
2023-01-11T10:56:22.002Z,2.40
2023-01-11T10:59:08.087Z,2.97
2023-01-11T11:01:50.346Z,3.17
2023-01-11T11:04:48.354Z,2.90
2023-01-11T11:07:24.406Z,3.03
2023-01-11T11:10:02.952Z,2.63
2023-01-11T11:12:34.300Z,1.93
2023-01-11T11:15:08.221Z,3.00
2023-01-11T11:17:37.969Z,2.50
2023-01-11T11:20:15.301Z,3.00
2023-01-11T11:22:45.240Z,2.80
2023-01-11T11:25:18.444Z,2.43
2023-01-11T11:27:51.866Z,2.53
2023-01-11T11:30:29.650Z,2.83
2023-01-11T11:33:02.126Z,3.73
2023-01-11T11:35:40.783Z,2.63
2023-01-11T11:38:22.656Z,2.37
2023-01-11T11:40:59.170Z,2.40
2023-01-11T11:43:28.785Z,2.10
2023-01-11T11:45:58.974Z,2.10
2023-01-11T11:48:29.515Z,3.00
2023-01-11T11:51:01.896Z,2.63
2023-01-11T11:53:44.401Z,1.97
2023-01-11T11:56:19.283Z,1.73
2023-01-11T11:58:48.308Z,1.90
2023-01-11T12:01:27.299Z,2.57
2023-01-11T12:03:59.559Z,1.93
2023-01-11T12:06:30.554Z,2.33
2023-01-11T12:09:02.863Z,2.10
2023-01-11T12:11:35.064Z,2.60
2023-01-11T12:14:07.554Z,1.43
2023-01-11T12:16:39.489Z,1.67
2023-01-11T12:19:35.583Z,2.37
2023-01-11T12:22:19.208Z,2.00
2023-01-11T12:24:49.085Z,2.23
2023-01-11T12:27:31.355Z,2.43
2023-01-11T12:30:20.335Z,1.80
2023-01-11T12:33:15.418Z,2.93
2023-01-11T12:35:57.887Z,2.43
2023-01-11T12:38:40.040Z,1.50
2023-01-11T12:41:50.629Z,2.10
2023-01-11T12:44:50.648Z,2.03
2023-01-11T12:47:51.965Z,2.13
2023-01-11T12:50:24.993Z,1.40
2023-01-11T12:53:11.382Z,2.90
2023-01-11T12:55:53.114Z,1.93
2023-01-11T12:58:28.058Z,2.47
2023-01-11T13:01:29.172Z,2.23
2023-01-11T13:04:26.967Z,1.73
2023-01-11T13:07:07.287Z,1.97
2023-01-11T13:09:49.375Z,2.17
2023-01-11T13:12:29.558Z,2.50
2023-01-11T13:15:10.471Z,2.03
2023-01-11T13:17:46.174Z,1.80
2023-01-11T13:20:29.397Z,2.33
2023-01-11T13:23:04.451Z,1.67
2023-01-11T13:25:36.556Z,2.07
2023-01-11T13:28:23.909Z,2.00
2023-01-11T13:30:53.130Z,1.70
2023-01-11T13:33:24.588Z,1.73
2023-01-11T13:35:59.080Z,1.83
2023-01-11T13:38:34.918Z,2.20
2023-01-11T13:41:13.899Z,1.10
2023-01-11T13:43:49.350Z,1.93
2023-01-11T13:46:23.661Z,1.40
2023-01-11T13:48:57.185Z,1.63
2023-01-11T13:51:35.983Z,1.67
2023-01-11T13:54:09.684Z,1.60
2023-01-11T13:56:42.805Z,1.43
2023-01-11T13:59:16.725Z,1.63
2023-01-11T14:01:51.857Z,1.97
2023-01-11T14:04:24.827Z,1.40
2023-01-11T14:07:03.671Z,1.63
2023-01-11T14:09:59.193Z,1.40
2023-01-11T14:12:42.883Z,1.17
2023-01-11T14:15:27.621Z,1.30
2023-01-11T14:18:13.380Z,1.50
2023-01-11T14:20:48.244Z,1.77
2023-01-11T14:23:19.214Z,1.43
2023-01-11T14:26:09.107Z,1.57
2023-01-11T14:28:54.389Z,1.40
2023-01-11T14:31:57.904Z,1.50
2023-01-11T14:34:52.699Z,1.50
2023-01-11T14:37:52.512Z,1.50
2023-01-11T14:41:02.838Z,1.17
2023-01-11T14:44:00.185Z,1.30
2023-01-11T14:47:03.892Z,1.40
2023-01-11T14:49:53.492Z,1.40
2023-01-11T14:52:39.107Z,1.37
2023-01-11T14:55:18.162Z,1.30
2023-01-11T14:58:02.323Z,1.80
2023-01-11T15:01:08.151Z,1.23
2023-01-11T15:03:58.238Z,1.03
2023-01-11T15:06:31.808Z,1.20
2023-01-11T15:09:00.827Z,0.77
2023-01-11T15:11:36.068Z,1.00
2023-01-11T15:14:08.875Z,1.03
2023-01-11T15:16:56.683Z,1.10
2023-01-11T15:19:33.911Z,1.80
2023-01-11T15:22:05.973Z,1.87
2023-01-11T15:24:37.861Z,1.57
2023-01-11T15:27:06.547Z,1.70
2023-01-11T15:29:40.514Z,1.30
2023-01-11T15:32:18.453Z,1.17
2023-01-11T15:34:49.839Z,1.40
2023-01-11T15:37:44.862Z,1.10
2023-01-11T15:40:20.276Z,1.23
2023-01-11T15:43:22.533Z,1.27
2023-01-11T15:46:50.573Z,1.17
2023-01-11T15:50:09.507Z,1.53
2023-01-11T15:53:17.453Z,1.50
2023-01-11T15:56:37.384Z,1.40
2023-01-11T15:59:54.103Z,1.63
2023-01-11T16:02:56.203Z,1.23
2023-01-11T16:05:28.382Z,1.70
2023-01-11T16:08:03.714Z,1.20
2023-01-11T16:10:52.717Z,1.40
2023-01-11T16:13:41.823Z,1.27
2023-01-11T16:16:20.225Z,1.40
2023-01-11T16:18:53.405Z,1.90
2023-01-11T16:21:30.893Z,1.30
2023-01-11T16:23:59.487Z,1.20
2023-01-11T16:26:29.176Z,1.30
2023-01-11T16:28:59.713Z,1.37
2023-01-11T16:31:59.211Z,1.53
2023-01-11T16:34:28.940Z,1.20
2023-01-11T16:36:57.871Z,1.43
2023-01-11T16:39:29.623Z,1.47
2023-01-11T16:42:03.283Z,1.17
2023-01-11T16:44:41.684Z,1.30
2023-01-11T16:47:15.327Z,1.10
2023-01-11T16:49:49.321Z,0.93
2023-01-11T16:52:39.275Z,1.13
2023-01-11T16:55:20.709Z,1.30
2023-01-11T16:57:54.272Z,1.30
2023-01-11T17:00:32.839Z,1.30
2023-01-11T17:03:18.008Z,1.43
2023-01-11T17:06:00.327Z,1.27
2023-01-11T17:08:31.494Z,1.50
2023-01-11T17:11:03.447Z,1.40
2023-01-11T17:13:53.797Z,1.10
2023-01-11T17:16:25.441Z,1.50
2023-01-11T17:18:54.529Z,1.00
2023-01-11T17:21:25.395Z,1.80
2023-01-11T17:23:56.300Z,1.10
2023-01-11T17:26:27.412Z,1.30
2023-01-11T17:28:59.969Z,1.50
2023-01-11T17:31:31.003Z,0.77
2023-01-11T17:34:04.832Z,1.20
2023-01-11T17:36:34.198Z,1.90
2023-01-11T17:39:04.717Z,1.60
2023-01-11T17:41:50.995Z,0.97
2023-01-11T17:44:40.111Z,1.50
2023-01-11T17:47:12.200Z,2.13
2023-01-11T17:49:40.834Z,1.53
2023-01-11T17:52:11.364Z,1.93
2023-01-11T17:54:39.738Z,1.90
2023-01-11T17:57:08.481Z,1.50
2023-01-11T17:59:38.125Z,1.80
2023-01-11T18:02:13.558Z,1.50
2023-01-11T18:04:42.325Z,1.40
2023-01-11T18:07:17.241Z,1.70
2023-01-11T18:09:48.122Z,1.40
2023-01-11T18:12:24.194Z,1.70
2023-01-11T18:14:55.919Z,1.90
2023-01-11T18:17:37.107Z,1.40
2023-01-11T18:20:33.552Z,1.53
2023-01-11T18:23:05.173Z,1.50
2023-01-11T18:25:35.633Z,1.50
2023-01-11T18:28:30.917Z,1.77
2023-01-11T18:31:02.245Z,1.47
2023-01-11T18:33:34.209Z,1.60
2023-01-11T18:36:04.408Z,1.30
2023-01-11T18:38:34.519Z,2.27
2023-01-11T18:41:24.633Z,2.20
2023-01-11T18:43:53.982Z,1.13
2023-01-11T18:46:23.793Z,2.00
2023-01-11T18:48:52.080Z,2.73
2023-01-11T18:51:25.345Z,2.00
2023-01-11T18:53:53.567Z,2.53
2023-01-11T18:56:22.119Z,2.23
2023-01-11T18:58:50.580Z,2.43
2023-01-11T19:01:19.159Z,1.80
2023-01-11T19:03:49.035Z,2.27
2023-01-11T19:06:19.768Z,2.10
2023-01-11T19:08:48.051Z,2.17
2023-01-11T19:11:16.987Z,2.47
2023-01-11T19:13:46.833Z,1.83
2023-01-11T19:16:16.015Z,2.00
2023-01-11T19:18:45.336Z,1.80
2023-01-11T19:21:15.204Z,1.87
2023-01-11T19:23:43.615Z,2.30
2023-01-11T19:26:12.016Z,2.53
2023-01-11T19:28:40.523Z,1.03
2023-01-11T19:31:09.442Z,2.27
2023-01-11T19:33:37.675Z,2.13
2023-01-11T19:36:07.437Z,1.97
2023-01-11T19:38:39.201Z,2.07
2023-01-11T19:41:09.693Z,1.53
2023-01-11T19:43:44.749Z,2.43
2023-01-11T19:46:15.119Z,2.30
2023-01-11T19:48:48.066Z,2.30
2023-01-11T19:51:16.316Z,1.97
2023-01-11T19:53:45.884Z,1.27
2023-01-11T19:56:14.374Z,2.83
2023-01-11T19:58:43.010Z,2.07
2023-01-11T20:01:12.054Z,2.07
2023-01-11T20:03:41.894Z,2.00
2023-01-11T20:06:11.419Z,2.20
2023-01-11T20:08:41.988Z,1.83
2023-01-11T20:11:15.105Z,2.23
2023-01-11T20:13:45.455Z,2.17
2023-01-11T20:16:15.405Z,1.93
2023-01-11T20:18:44.048Z,2.43
2023-01-11T20:21:13.643Z,2.77
2023-01-11T20:23:41.785Z,2.07
2023-01-11T20:26:15.328Z,2.53
2023-01-11T20:28:45.163Z,2.53
2023-01-11T20:31:13.345Z,2.30
2023-01-11T20:33:42.036Z,2.10
2023-01-11T20:36:15.502Z,2.33
2023-01-11T20:38:44.615Z,1.97
2023-01-11T20:41:36.004Z,1.87
2023-01-11T20:44:04.644Z,2.40
2023-01-11T20:46:33.622Z,2.30
2023-01-11T20:49:02.283Z,2.33
2023-01-11T20:51:30.841Z,2.20
2023-01-11T20:53:59.172Z,2.87
2023-01-11T20:56:28.735Z,2.87
2023-01-11T20:58:57.173Z,2.80
2023-01-11T21:01:26.491Z,2.73
2023-01-11T21:03:54.695Z,2.80
2023-01-11T21:06:23.309Z,2.53
2023-01-11T21:08:55.499Z,2.63
2023-01-11T21:11:25.146Z,2.20
2023-01-11T21:16:27.432Z,2.77
2023-01-11T21:18:57.977Z,2.20
2023-01-11T21:21:27.538Z,2.87
2023-01-11T21:23:57.036Z,3.00
2023-01-11T21:26:26.613Z,2.37
2023-01-11T21:28:58.775Z,2.10
2023-01-11T21:31:27.876Z,2.90
2023-01-11T21:33:56.278Z,2.37
2023-01-11T21:36:26.105Z,3.03
2023-01-11T21:38:55.315Z,2.87
2023-01-11T21:41:39.495Z,3.43
2023-01-11T21:44:10.582Z,2.90
2023-01-11T21:46:39.122Z,2.30
2023-01-11T21:49:07.961Z,2.00
2023-01-11T21:51:36.621Z,1.90
2023-01-11T21:54:06.586Z,3.10
2023-01-11T21:56:34.940Z,2.77
2023-01-11T21:59:03.806Z,2.77
2023-01-11T22:01:33.355Z,2.33
2023-01-11T22:04:06.032Z,2.43
2023-01-11T22:06:37.591Z,2.47
2023-01-11T22:09:06.815Z,2.90
2023-01-11T22:11:34.996Z,2.50
2023-01-11T22:14:04.075Z,3.00
2023-01-11T22:16:35.552Z,2.73
2023-01-11T22:19:06.171Z,2.93
2023-01-11T22:21:35.781Z,2.83
2023-01-11T22:24:04.813Z,2.67
2023-01-11T22:26:35.781Z,3.47
2023-01-11T22:29:15.543Z,2.03
2023-01-11T22:31:49.011Z,2.23
2023-01-11T22:34:18.312Z,2.67
2023-01-11T22:36:47.121Z,2.77
2023-01-11T22:39:16.873Z,2.87
2023-01-11T22:41:46.350Z,2.97
2023-01-11T22:44:15.283Z,3.27
2023-01-11T22:46:45.944Z,2.40
2023-01-11T22:49:14.934Z,2.10
2023-01-11T22:51:44.820Z,2.70
2023-01-11T22:54:13.865Z,2.97
2023-01-11T22:56:42.508Z,2.70
2023-01-11T22:59:11.180Z,2.20
2023-01-11T23:01:41.721Z,3.93
2023-01-11T23:04:14.290Z,2.90
2023-01-11T23:06:44.003Z,3.47
2023-01-11T23:09:16.352Z,2.90
2023-01-11T23:12:04.387Z,3.30
2023-01-11T23:14:33.786Z,3.73
2023-01-11T23:17:05.485Z,2.73
2023-01-11T23:19:36.142Z,3.47
2023-01-11T23:22:04.748Z,2.57
2023-01-11T23:24:32.954Z,2.23
2023-01-11T23:27:01.444Z,1.50
2023-01-11T23:29:29.758Z,2.63
2023-01-11T23:31:58.071Z,2.87
2023-01-11T23:34:26.253Z,3.80
2023-01-11T23:36:55.857Z,3.23
2023-01-11T23:39:24.855Z,3.03
2023-01-11T23:42:10.231Z,2.47
2023-01-11T23:44:38.511Z,2.73
2023-01-11T23:47:29.754Z,3.40
2023-01-11T23:50:00.368Z,3.00
2023-01-11T23:52:32.308Z,2.43
2023-01-11T23:55:00.943Z,2.70
2023-01-11T23:57:29.200Z,3.10
2023-01-11T23:59:57.317Z,2.70
